sensor_id;sensor_type;location;lat;lon;timestamp;temperature;humidity
52869;DHT22;39100;53.480;6.158;2024-01-10T00:02:20;-0.30;99.90
52869;DHT22;39100;53.480;6.158;2024-01-10T00:04:45;-0.30;99.90
52869;DHT22;39100;53.480;6.158;2024-01-10T00:07:11;-0.40;99.90
52869;DHT22;39100;53.480;6.158;2024-01-10T00:09:36;-0.40;99.90
52869;DHT22;39100;53.480;6.158;2024-01-10T00:12:02;-0.40;99.90
52869;DHT22;39100;53.480;6.158;2024-01-10T00:14:28;-0.40;99.90
52869;DHT22;39100;53.480;6.158;2024-01-10T00:16:53;-0.40;99.90
52869;DHT22;39100;53.480;6.158;2024-01-10T00:19:19;-0.40;99.90
52869;DHT22;39100;53.480;6.158;2024-01-10T00:21:44;-0.40;99.90
52869;DHT22;39100;53.480;6.158;2024-01-10T00:24:10;-0.40;99.90
52869;DHT22;39100;53.480;6.158;2024-01-10T00:26:35;-0.40;99.90
52869;DHT22;39100;53.480;6.158;2024-01-10T00:29:01;-0.40;99.90
52869;DHT22;39100;53.480;6.158;2024-01-10T00:31:26;-0.40;99.90
52869;DHT22;39100;53.480;6.158;2024-01-10T00:33:52;-0.40;99.90
52869;DHT22;39100;53.480;6.158;2024-01-10T00:36:17;-0.40;99.90
52869;DHT22;39100;53.480;6.158;2024-01-10T00:38:43;-0.40;99.90
52869;DHT22;39100;53.480;6.158;2024-01-10T00:41:08;-0.40;99.90
52869;DHT22;39100;53.480;6.158;2024-01-10T00:43:34;-0.40;99.90
52869;DHT22;39100;53.480;6.158;2024-01-10T00:46:00;-0.50;99.90
52869;DHT22;39100;53.480;6.158;2024-01-10T00:48:25;-0.40;99.90
52869;DHT22;39100;53.480;6.158;2024-01-10T00:50:51;-0.50;99.90
52869;DHT22;39100;53.480;6.158;2024-01-10T00:53:16;-0.40;99.90
52869;DHT22;39100;53.480;6.158;2024-01-10T00:55:42;-0.40;99.90
52869;DHT22;39100;53.480;6.158;2024-01-10T00:58:08;-0.40;99.90
52869;DHT22;39100;53.480;6.158;2024-01-10T01:00:33;-0.40;99.90
52869;DHT22;39100;53.480;6.158;2024-01-10T01:02:59;-0.30;99.90
52869;DHT22;39100;53.480;6.158;2024-01-10T01:05:24;-0.40;99.90
52869;DHT22;39100;53.480;6.158;2024-01-10T01:07:50;-0.40;99.90
52869;DHT22;39100;53.480;6.158;2024-01-10T01:10:15;-0.40;99.90
52869;DHT22;39100;53.480;6.158;2024-01-10T01:12:42;-0.40;99.90
52869;DHT22;39100;53.480;6.158;2024-01-10T01:15:07;-0.40;99.90
52869;DHT22;39100;53.480;6.158;2024-01-10T01:17:33;-0.40;99.90
52869;DHT22;39100;53.480;6.158;2024-01-10T01:20:00;-0.40;99.90
52869;DHT22;39100;53.480;6.158;2024-01-10T01:22:25;-0.70;99.90
52869;DHT22;39100;53.480;6.158;2024-01-10T01:24:52;-0.40;99.90
52869;DHT22;39100;53.480;6.158;2024-01-10T01:27:17;-0.40;99.90
52869;DHT22;39100;53.480;6.158;2024-01-10T01:29:43;-0.40;99.90
52869;DHT22;39100;53.480;6.158;2024-01-10T01:32:08;-0.50;99.90
52869;DHT22;39100;53.480;6.158;2024-01-10T01:34:34;-0.50;99.90
52869;DHT22;39100;53.480;6.158;2024-01-10T01:36:59;-0.50;99.90
52869;DHT22;39100;53.480;6.158;2024-01-10T01:39:26;-0.40;99.90
52869;DHT22;39100;53.480;6.158;2024-01-10T01:41:52;-0.40;99.90
52869;DHT22;39100;53.480;6.158;2024-01-10T01:44:17;-0.40;99.90
52869;DHT22;39100;53.480;6.158;2024-01-10T01:46:43;-0.40;99.90
52869;DHT22;39100;53.480;6.158;2024-01-10T01:49:10;-0.40;99.90
52869;DHT22;39100;53.480;6.158;2024-01-10T01:51:36;-0.50;99.90
52869;DHT22;39100;53.480;6.158;2024-01-10T01:54:06;-0.50;99.90
52869;DHT22;39100;53.480;6.158;2024-01-10T01:56:31;-0.50;99.90
52869;DHT22;39100;53.480;6.158;2024-01-10T01:58:57;-0.50;99.90
52869;DHT22;39100;53.480;6.158;2024-01-10T02:01:23;-0.50;99.90
52869;DHT22;39100;53.480;6.158;2024-01-10T02:03:49;-0.50;99.90
52869;DHT22;39100;53.480;6.158;2024-01-10T02:06:14;-0.50;99.90
52869;DHT22;39100;53.480;6.158;2024-01-10T02:08:40;-0.40;99.90
52869;DHT22;39100;53.480;6.158;2024-01-10T02:11:06;-0.50;99.90
52869;DHT22;39100;53.480;6.158;2024-01-10T02:13:32;-0.60;99.90
52869;DHT22;39100;53.480;6.158;2024-01-10T02:15:59;-0.60;99.90
52869;DHT22;39100;53.480;6.158;2024-01-10T02:18:24;-0.50;99.90
52869;DHT22;39100;53.480;6.158;2024-01-10T02:20:50;-0.60;99.90
52869;DHT22;39100;53.480;6.158;2024-01-10T02:23:17;-0.60;99.90
52869;DHT22;39100;53.480;6.158;2024-01-10T02:25:43;-0.60;99.90
52869;DHT22;39100;53.480;6.158;2024-01-10T02:28:09;-0.50;99.90
52869;DHT22;39100;53.480;6.158;2024-01-10T02:30:35;-0.50;99.90
52869;DHT22;39100;53.480;6.158;2024-01-10T02:33:00;-0.60;99.90
52869;DHT22;39100;53.480;6.158;2024-01-10T02:35:26;-0.60;99.90
52869;DHT22;39100;53.480;6.158;2024-01-10T02:37:52;-0.60;99.90
52869;DHT22;39100;53.480;6.158;2024-01-10T02:40:19;-0.50;99.90
52869;DHT22;39100;53.480;6.158;2024-01-10T02:42:45;-0.50;99.90
52869;DHT22;39100;53.480;6.158;2024-01-10T02:45:11;-0.60;99.90
52869;DHT22;39100;53.480;6.158;2024-01-10T02:47:36;-0.50;99.90
52869;DHT22;39100;53.480;6.158;2024-01-10T02:50:03;-0.60;99.90
52869;DHT22;39100;53.480;6.158;2024-01-10T02:52:29;-0.60;99.90
52869;DHT22;39100;53.480;6.158;2024-01-10T02:54:55;-0.60;99.90
52869;DHT22;39100;53.480;6.158;2024-01-10T02:57:20;-0.50;99.90
52869;DHT22;39100;53.480;6.158;2024-01-10T02:59:46;-0.50;99.90
52869;DHT22;39100;53.480;6.158;2024-01-10T03:02:11;-0.60;99.90
52869;DHT22;39100;53.480;6.158;2024-01-10T03:04:37;-0.60;99.90
52869;DHT22;39100;53.480;6.158;2024-01-10T03:07:03;-0.70;99.90
52869;DHT22;39100;53.480;6.158;2024-01-10T03:09:28;-0.70;99.90
52869;DHT22;39100;53.480;6.158;2024-01-10T03:11:54;-0.60;99.90
52869;DHT22;39100;53.480;6.158;2024-01-10T03:14:19;-0.60;99.90
52869;DHT22;39100;53.480;6.158;2024-01-10T03:16:45;-0.60;99.90
52869;DHT22;39100;53.480;6.158;2024-01-10T03:19:11;-0.40;99.90
52869;DHT22;39100;53.480;6.158;2024-01-10T03:21:37;-0.60;99.90
52869;DHT22;39100;53.480;6.158;2024-01-10T03:24:02;-0.60;99.90
52869;DHT22;39100;53.480;6.158;2024-01-10T03:26:28;-0.60;99.90
52869;DHT22;39100;53.480;6.158;2024-01-10T03:28:56;-0.60;99.90
52869;DHT22;39100;53.480;6.158;2024-01-10T03:31:21;-0.60;99.90
52869;DHT22;39100;53.480;6.158;2024-01-10T03:33:47;-0.70;99.90
52869;DHT22;39100;53.480;6.158;2024-01-10T03:36:15;-0.60;99.90
52869;DHT22;39100;53.480;6.158;2024-01-10T03:38:41;-0.70;99.90
52869;DHT22;39100;53.480;6.158;2024-01-10T03:41:06;-0.50;99.90
52869;DHT22;39100;53.480;6.158;2024-01-10T03:43:32;-0.60;99.90
52869;DHT22;39100;53.480;6.158;2024-01-10T03:45:58;-0.70;99.90
52869;DHT22;39100;53.480;6.158;2024-01-10T03:48:24;-0.60;99.90
52869;DHT22;39100;53.480;6.158;2024-01-10T03:50:50;-0.70;99.90
52869;DHT22;39100;53.480;6.158;2024-01-10T03:53:15;-0.60;99.90
52869;DHT22;39100;53.480;6.158;2024-01-10T03:55:41;-0.70;99.90
52869;DHT22;39100;53.480;6.158;2024-01-10T03:58:07;-0.80;99.90
52869;DHT22;39100;53.480;6.158;2024-01-10T04:00:32;-0.80;99.90
52869;DHT22;39100;53.480;6.158;2024-01-10T04:02:58;-0.80;99.90
52869;DHT22;39100;53.480;6.158;2024-01-10T04:05:23;-0.70;99.90
52869;DHT22;39100;53.480;6.158;2024-01-10T04:07:51;-0.80;99.90
52869;DHT22;39100;53.480;6.158;2024-01-10T04:10:16;-0.80;99.90
52869;DHT22;39100;53.480;6.158;2024-01-10T04:12:43;-0.90;99.90
52869;DHT22;39100;53.480;6.158;2024-01-10T04:15:09;-0.80;99.90
52869;DHT22;39100;53.480;6.158;2024-01-10T04:17:35;-0.90;99.90
52869;DHT22;39100;53.480;6.158;2024-01-10T04:20:01;-0.70;99.90
52869;DHT22;39100;53.480;6.158;2024-01-10T04:22:26;-0.80;99.90
52869;DHT22;39100;53.480;6.158;2024-01-10T04:24:52;-0.80;99.90
52869;DHT22;39100;53.480;6.158;2024-01-10T04:27:18;-0.80;99.90
52869;DHT22;39100;53.480;6.158;2024-01-10T04:29:44;-0.80;99.90
52869;DHT22;39100;53.480;6.158;2024-01-10T04:32:09;-0.80;99.90
52869;DHT22;39100;53.480;6.158;2024-01-10T04:34:35;-0.50;99.90
52869;DHT22;39100;53.480;6.158;2024-01-10T04:37:01;-0.70;99.90
52869;DHT22;39100;53.480;6.158;2024-01-10T04:39:26;-0.70;99.90
52869;DHT22;39100;53.480;6.158;2024-01-10T04:41:52;-0.70;99.90
52869;DHT22;39100;53.480;6.158;2024-01-10T04:44:18;-0.80;99.90
52869;DHT22;39100;53.480;6.158;2024-01-10T04:46:43;-0.70;99.90
52869;DHT22;39100;53.480;6.158;2024-01-10T04:49:09;-0.70;99.90
52869;DHT22;39100;53.480;6.158;2024-01-10T04:51:35;-0.70;99.90
52869;DHT22;39100;53.480;6.158;2024-01-10T04:54:01;-0.70;99.90
52869;DHT22;39100;53.480;6.158;2024-01-10T04:56:27;-0.80;99.90
52869;DHT22;39100;53.480;6.158;2024-01-10T04:58:52;-0.80;99.90
52869;DHT22;39100;53.480;6.158;2024-01-10T05:01:18;-0.80;99.90
52869;DHT22;39100;53.480;6.158;2024-01-10T05:03:44;-0.80;99.90
52869;DHT22;39100;53.480;6.158;2024-01-10T05:06:10;-0.90;99.90
52869;DHT22;39100;53.480;6.158;2024-01-10T05:08:36;-0.90;99.90
52869;DHT22;39100;53.480;6.158;2024-01-10T05:11:02;-0.90;99.90
52869;DHT22;39100;53.480;6.158;2024-01-10T05:13:28;-0.90;99.90
52869;DHT22;39100;53.480;6.158;2024-01-10T05:15:53;-0.90;99.90
52869;DHT22;39100;53.480;6.158;2024-01-10T05:18:20;-1.00;99.90
52869;DHT22;39100;53.480;6.158;2024-01-10T05:20:46;-0.90;99.90
52869;DHT22;39100;53.480;6.158;2024-01-10T05:23:12;-0.90;99.90
52869;DHT22;39100;53.480;6.158;2024-01-10T05:25:37;-0.90;99.90
52869;DHT22;39100;53.480;6.158;2024-01-10T05:28:03;-0.90;99.90
52869;DHT22;39100;53.480;6.158;2024-01-10T05:30:29;-0.90;99.90
52869;DHT22;39100;53.480;6.158;2024-01-10T05:32:55;-0.90;99.90
52869;DHT22;39100;53.480;6.158;2024-01-10T05:35:21;-0.80;99.90
52869;DHT22;39100;53.480;6.158;2024-01-10T05:37:46;-0.80;99.90
52869;DHT22;39100;53.480;6.158;2024-01-10T05:40:12;-0.80;99.90
52869;DHT22;39100;53.480;6.158;2024-01-10T05:42:38;-0.80;99.90
52869;DHT22;39100;53.480;6.158;2024-01-10T05:45:04;-0.80;99.90
52869;DHT22;39100;53.480;6.158;2024-01-10T05:47:30;-0.80;99.90
52869;DHT22;39100;53.480;6.158;2024-01-10T05:49:55;-0.70;99.90
52869;DHT22;39100;53.480;6.158;2024-01-10T05:52:21;-0.60;99.90
52869;DHT22;39100;53.480;6.158;2024-01-10T05:54:48;-0.70;99.90
52869;DHT22;39100;53.480;6.158;2024-01-10T05:57:14;-0.70;99.90
52869;DHT22;39100;53.480;6.158;2024-01-10T05:59:40;-0.80;99.90
52869;DHT22;39100;53.480;6.158;2024-01-10T06:02:05;-0.70;99.90
52869;DHT22;39100;53.480;6.158;2024-01-10T06:04:31;-0.90;99.90
52869;DHT22;39100;53.480;6.158;2024-01-10T06:07:00;-0.80;99.90
52869;DHT22;39100;53.480;6.158;2024-01-10T06:09:26;-0.80;99.90
52869;DHT22;39100;53.480;6.158;2024-01-10T06:11:52;-0.80;99.90
52869;DHT22;39100;53.480;6.158;2024-01-10T06:14:17;-0.80;99.90
52869;DHT22;39100;53.480;6.158;2024-01-10T06:16:44;-0.70;99.90
52869;DHT22;39100;53.480;6.158;2024-01-10T06:19:10;-0.70;99.90
52869;DHT22;39100;53.480;6.158;2024-01-10T06:21:37;-0.70;99.90
52869;DHT22;39100;53.480;6.158;2024-01-10T06:24:02;-0.70;99.90
52869;DHT22;39100;53.480;6.158;2024-01-10T06:26:28;-0.70;99.90
52869;DHT22;39100;53.480;6.158;2024-01-10T06:28:54;-0.50;99.90
52869;DHT22;39100;53.480;6.158;2024-01-10T06:31:19;-0.60;99.90
52869;DHT22;39100;53.480;6.158;2024-01-10T06:33:45;-0.60;99.90
52869;DHT22;39100;53.480;6.158;2024-01-10T06:36:11;-0.60;99.90
52869;DHT22;39100;53.480;6.158;2024-01-10T06:38:38;-0.50;99.90
52869;DHT22;39100;53.480;6.158;2024-01-10T06:41:08;-0.50;99.90
52869;DHT22;39100;53.480;6.158;2024-01-10T06:43:34;-0.60;99.90
52869;DHT22;39100;53.480;6.158;2024-01-10T06:46:00;-0.60;99.90
52869;DHT22;39100;53.480;6.158;2024-01-10T06:48:25;-0.50;99.90
52869;DHT22;39100;53.480;6.158;2024-01-10T06:50:51;-0.60;99.90
52869;DHT22;39100;53.480;6.158;2024-01-10T06:53:17;-0.60;99.90
52869;DHT22;39100;53.480;6.158;2024-01-10T06:55:42;-0.60;99.90
52869;DHT22;39100;53.480;6.158;2024-01-10T06:58:08;-0.60;99.90
52869;DHT22;39100;53.480;6.158;2024-01-10T07:00:33;-0.60;99.90
52869;DHT22;39100;53.480;6.158;2024-01-10T07:03:01;-0.60;99.90
52869;DHT22;39100;53.480;6.158;2024-01-10T07:05:27;-0.70;99.90
52869;DHT22;39100;53.480;6.158;2024-01-10T07:07:53;-0.70;99.90
52869;DHT22;39100;53.480;6.158;2024-01-10T07:10:19;-0.70;99.90
52869;DHT22;39100;53.480;6.158;2024-01-10T07:12:45;-0.70;99.90
52869;DHT22;39100;53.480;6.158;2024-01-10T07:15:10;-0.70;99.90
52869;DHT22;39100;53.480;6.158;2024-01-10T07:17:37;-0.70;99.90
52869;DHT22;39100;53.480;6.158;2024-01-10T07:20:03;-0.70;99.90
52869;DHT22;39100;53.480;6.158;2024-01-10T07:22:29;-0.70;99.90
52869;DHT22;39100;53.480;6.158;2024-01-10T07:24:54;-0.60;99.90
52869;DHT22;39100;53.480;6.158;2024-01-10T07:27:20;-0.60;99.90
52869;DHT22;39100;53.480;6.158;2024-01-10T07:29:45;-0.60;99.90
52869;DHT22;39100;53.480;6.158;2024-01-10T07:32:11;-0.60;99.90
52869;DHT22;39100;53.480;6.158;2024-01-10T07:34:40;-0.60;99.90
52869;DHT22;39100;53.480;6.158;2024-01-10T07:37:05;-0.60;99.90
52869;DHT22;39100;53.480;6.158;2024-01-10T07:39:31;-0.60;99.90
52869;DHT22;39100;53.480;6.158;2024-01-10T07:41:57;-0.60;99.90
52869;DHT22;39100;53.480;6.158;2024-01-10T07:44:23;-0.60;99.90
52869;DHT22;39100;53.480;6.158;2024-01-10T07:46:49;-0.60;99.90
52869;DHT22;39100;53.480;6.158;2024-01-10T07:49:19;-0.60;99.90
52869;DHT22;39100;53.480;6.158;2024-01-10T07:51:47;-0.60;99.90
52869;DHT22;39100;53.480;6.158;2024-01-10T07:54:12;-0.60;99.90
52869;DHT22;39100;53.480;6.158;2024-01-10T07:56:38;-0.60;99.90
52869;DHT22;39100;53.480;6.158;2024-01-10T07:59:05;-0.60;99.90
52869;DHT22;39100;53.480;6.158;2024-01-10T08:01:30;-0.60;99.90
52869;DHT22;39100;53.480;6.158;2024-01-10T08:03:56;-0.50;99.90
52869;DHT22;39100;53.480;6.158;2024-01-10T08:06:21;-0.50;99.90
52869;DHT22;39100;53.480;6.158;2024-01-10T08:08:47;-0.50;99.90
52869;DHT22;39100;53.480;6.158;2024-01-10T08:11:13;-0.50;99.90
52869;DHT22;39100;53.480;6.158;2024-01-10T08:13:38;-0.50;99.90
52869;DHT22;39100;53.480;6.158;2024-01-10T08:16:04;-0.50;99.90
52869;DHT22;39100;53.480;6.158;2024-01-10T08:18:30;-0.60;99.90
52869;DHT22;39100;53.480;6.158;2024-01-10T08:20:55;-0.60;99.90
52869;DHT22;39100;53.480;6.158;2024-01-10T08:23:21;-0.60;99.90
52869;DHT22;39100;53.480;6.158;2024-01-10T08:25:46;-0.50;99.90
52869;DHT22;39100;53.480;6.158;2024-01-10T08:28:12;-0.30;99.90
52869;DHT22;39100;53.480;6.158;2024-01-10T08:30:39;0.00;99.90
52869;DHT22;39100;53.480;6.158;2024-01-10T08:33:05;0.40;99.90
52869;DHT22;39100;53.480;6.158;2024-01-10T08:35:30;0.70;99.90
52869;DHT22;39100;53.480;6.158;2024-01-10T08:37:59;0.90;99.90
52869;DHT22;39100;53.480;6.158;2024-01-10T08:40:25;1.10;99.90
52869;DHT22;39100;53.480;6.158;2024-01-10T08:42:52;1.40;99.90
52869;DHT22;39100;53.480;6.158;2024-01-10T08:45:17;1.50;99.90
52869;DHT22;39100;53.480;6.158;2024-01-10T08:47:43;1.50;99.90
52869;DHT22;39100;53.480;6.158;2024-01-10T08:50:10;1.40;99.90
52869;DHT22;39100;53.480;6.158;2024-01-10T08:52:36;1.30;99.90
52869;DHT22;39100;53.480;6.158;2024-01-10T08:55:06;1.20;99.90
52869;DHT22;39100;53.480;6.158;2024-01-10T08:57:35;1.00;99.90
52869;DHT22;39100;53.480;6.158;2024-01-10T09:00:00;0.90;99.90
52869;DHT22;39100;53.480;6.158;2024-01-10T09:02:26;0.90;99.90
52869;DHT22;39100;53.480;6.158;2024-01-10T09:04:53;0.80;99.90
52869;DHT22;39100;53.480;6.158;2024-01-10T09:07:19;0.70;99.90
52869;DHT22;39100;53.480;6.158;2024-01-10T09:09:45;0.70;99.90
52869;DHT22;39100;53.480;6.158;2024-01-10T09:12:11;0.70;99.90
52869;DHT22;39100;53.480;6.158;2024-01-10T09:14:36;0.70;99.90
52869;DHT22;39100;53.480;6.158;2024-01-10T09:17:02;0.80;99.90
52869;DHT22;39100;53.480;6.158;2024-01-10T09:19:29;0.80;99.90
52869;DHT22;39100;53.480;6.158;2024-01-10T09:21:55;0.80;99.90
52869;DHT22;39100;53.480;6.158;2024-01-10T09:24:21;0.80;99.90
52869;DHT22;39100;53.480;6.158;2024-01-10T09:26:47;0.70;99.90
52869;DHT22;39100;53.480;6.158;2024-01-10T09:29:13;0.80;99.90
52869;DHT22;39100;53.480;6.158;2024-01-10T09:31:41;0.80;99.90
52869;DHT22;39100;53.480;6.158;2024-01-10T09:34:07;0.90;99.90
52869;DHT22;39100;53.480;6.158;2024-01-10T09:36:32;1.00;99.90
52869;DHT22;39100;53.480;6.158;2024-01-10T09:39:01;1.00;99.90
52869;DHT22;39100;53.480;6.158;2024-01-10T09:41:32;1.00;99.90
52869;DHT22;39100;53.480;6.158;2024-01-10T09:44:02;1.10;99.90
52869;DHT22;39100;53.480;6.158;2024-01-10T09:46:29;1.10;99.90
52869;DHT22;39100;53.480;6.158;2024-01-10T09:48:55;1.10;99.90
52869;DHT22;39100;53.480;6.158;2024-01-10T09:51:22;1.20;99.90
52869;DHT22;39100;53.480;6.158;2024-01-10T09:53:48;1.20;99.90
52869;DHT22;39100;53.480;6.158;2024-01-10T09:56:15;1.30;99.90
52869;DHT22;39100;53.480;6.158;2024-01-10T09:58:44;1.30;99.90
52869;DHT22;39100;53.480;6.158;2024-01-10T10:01:14;1.40;99.90
52869;DHT22;39100;53.480;6.158;2024-01-10T10:03:41;1.40;99.90
52869;DHT22;39100;53.480;6.158;2024-01-10T10:06:10;1.50;99.90
52869;DHT22;39100;53.480;6.158;2024-01-10T10:08:36;1.50;99.90
52869;DHT22;39100;53.480;6.158;2024-01-10T10:11:03;1.60;99.90
52869;DHT22;39100;53.480;6.158;2024-01-10T10:13:29;1.70;99.90
52869;DHT22;39100;53.480;6.158;2024-01-10T10:16:02;1.70;99.90
52869;DHT22;39100;53.480;6.158;2024-01-10T10:18:29;1.80;99.90
52869;DHT22;39100;53.480;6.158;2024-01-10T10:21:08;1.90;99.90
52869;DHT22;39100;53.480;6.158;2024-01-10T10:23:36;2.00;99.90
52869;DHT22;39100;53.480;6.158;2024-01-10T10:26:16;2.20;99.90
52869;DHT22;39100;53.480;6.158;2024-01-10T10:28:49;2.30;99.90
52869;DHT22;39100;53.480;6.158;2024-01-10T10:31:18;2.40;99.90
52869;DHT22;39100;53.480;6.158;2024-01-10T10:33:45;2.60;99.90
52869;DHT22;39100;53.480;6.158;2024-01-10T10:36:15;3.20;99.90
52869;DHT22;39100;53.480;6.158;2024-01-10T10:38:41;3.80;99.90
52869;DHT22;39100;53.480;6.158;2024-01-10T10:41:07;4.30;99.90
52869;DHT22;39100;53.480;6.158;2024-01-10T10:43:37;4.70;99.90
52869;DHT22;39100;53.480;6.158;2024-01-10T10:46:11;4.80;99.90
52869;DHT22;39100;53.480;6.158;2024-01-10T10:48:40;4.70;99.90
52869;DHT22;39100;53.480;6.158;2024-01-10T10:51:17;4.50;99.90
52869;DHT22;39100;53.480;6.158;2024-01-10T10:53:44;4.30;99.90
52869;DHT22;39100;53.480;6.158;2024-01-10T10:56:11;4.20;99.90
52869;DHT22;39100;53.480;6.158;2024-01-10T10:58:44;4.20;99.90
52869;DHT22;39100;53.480;6.158;2024-01-10T11:01:12;4.30;99.90
52869;DHT22;39100;53.480;6.158;2024-01-10T11:03:40;4.50;99.90
52869;DHT22;39100;53.480;6.158;2024-01-10T11:06:08;4.60;99.90
52869;DHT22;39100;53.480;6.158;2024-01-10T11:08:45;4.80;99.90
52869;DHT22;39100;53.480;6.158;2024-01-10T11:11:37;3.90;99.90
52869;DHT22;39100;53.480;6.158;2024-01-10T11:20:10;4.60;99.90
52869;DHT22;39100;53.480;6.158;2024-01-10T11:25:31;5.10;99.90
52869;DHT22;39100;53.480;6.158;2024-01-10T11:28:02;5.30;99.90
52869;DHT22;39100;53.480;6.158;2024-01-10T11:30:35;5.40;99.90
52869;DHT22;39100;53.480;6.158;2024-01-10T11:33:17;5.40;99.90
52869;DHT22;39100;53.480;6.158;2024-01-10T11:36:06;5.30;99.90
52869;DHT22;39100;53.480;6.158;2024-01-10T11:38:39;5.20;99.90
52869;DHT22;39100;53.480;6.158;2024-01-10T11:41:05;5.20;99.90
52869;DHT22;39100;53.480;6.158;2024-01-10T11:43:30;5.30;99.90
52869;DHT22;39100;53.480;6.158;2024-01-10T11:45:56;5.40;99.90
52869;DHT22;39100;53.480;6.158;2024-01-10T11:48:28;5.70;99.90
52869;DHT22;39100;53.480;6.158;2024-01-10T11:50:54;5.90;99.90
52869;DHT22;39100;53.480;6.158;2024-01-10T11:53:44;5.80;99.90
52869;DHT22;39100;53.480;6.158;2024-01-10T11:56:14;5.90;99.90
52869;DHT22;39100;53.480;6.158;2024-01-10T11:59:03;6.00;99.90
52869;DHT22;39100;53.480;6.158;2024-01-10T12:01:32;6.20;99.90
52869;DHT22;39100;53.480;6.158;2024-01-10T12:03:58;6.20;99.90
52869;DHT22;39100;53.480;6.158;2024-01-10T12:06:25;6.20;99.90
52869;DHT22;39100;53.480;6.158;2024-01-10T12:08:51;5.90;99.90
52869;DHT22;39100;53.480;6.158;2024-01-10T12:11:17;5.50;99.90
52869;DHT22;39100;53.480;6.158;2024-01-10T12:13:43;5.20;99.90
52869;DHT22;39100;53.480;6.158;2024-01-10T12:16:11;4.90;99.90
52869;DHT22;39100;53.480;6.158;2024-01-10T12:18:37;4.60;99.90
52869;DHT22;39100;53.480;6.158;2024-01-10T12:21:03;4.30;99.90
52869;DHT22;39100;53.480;6.158;2024-01-10T12:23:28;4.00;99.90
52869;DHT22;39100;53.480;6.158;2024-01-10T12:25:57;3.90;99.90
52869;DHT22;39100;53.480;6.158;2024-01-10T12:28:23;3.70;99.90
52869;DHT22;39100;53.480;6.158;2024-01-10T12:30:50;3.60;99.90
52869;DHT22;39100;53.480;6.158;2024-01-10T12:33:15;3.80;99.90
52869;DHT22;39100;53.480;6.158;2024-01-10T12:35:41;4.00;99.90
52869;DHT22;39100;53.480;6.158;2024-01-10T12:38:10;4.20;99.90
52869;DHT22;39100;53.480;6.158;2024-01-10T12:40:37;4.40;99.90
52869;DHT22;39100;53.480;6.158;2024-01-10T12:43:03;4.80;99.90
52869;DHT22;39100;53.480;6.158;2024-01-10T12:45:29;4.90;99.90
52869;DHT22;39100;53.480;6.158;2024-01-10T12:47:55;4.90;99.90
52869;DHT22;39100;53.480;6.158;2024-01-10T12:50:20;4.70;99.90
52869;DHT22;39100;53.480;6.158;2024-01-10T12:52:46;4.50;99.90
52869;DHT22;39100;53.480;6.158;2024-01-10T12:55:14;4.30;99.90
52869;DHT22;39100;53.480;6.158;2024-01-10T12:57:40;4.40;99.90
52869;DHT22;39100;53.480;6.158;2024-01-10T13:00:07;4.40;99.90
52869;DHT22;39100;53.480;6.158;2024-01-10T13:02:35;4.20;99.90
52869;DHT22;39100;53.480;6.158;2024-01-10T13:05:06;3.90;99.90
52869;DHT22;39100;53.480;6.158;2024-01-10T13:07:37;3.70;99.90
52869;DHT22;39100;53.480;6.158;2024-01-10T13:10:04;3.60;99.90
52869;DHT22;39100;53.480;6.158;2024-01-10T13:12:29;3.50;99.90
52869;DHT22;39100;53.480;6.158;2024-01-10T13:14:55;3.30;99.90
52869;DHT22;39100;53.480;6.158;2024-01-10T13:17:21;3.10;99.90
52869;DHT22;39100;53.480;6.158;2024-01-10T13:19:47;3.10;99.90
52869;DHT22;39100;53.480;6.158;2024-01-10T13:22:17;3.10;99.90
52869;DHT22;39100;53.480;6.158;2024-01-10T13:24:45;3.10;99.90
52869;DHT22;39100;53.480;6.158;2024-01-10T13:29:37;3.30;99.90
52869;DHT22;39100;53.480;6.158;2024-01-10T13:32:04;3.30;99.90
52869;DHT22;39100;53.480;6.158;2024-01-10T13:34:30;3.30;99.90
52869;DHT22;39100;53.480;6.158;2024-01-10T13:36:55;3.20;99.90
52869;DHT22;39100;53.480;6.158;2024-01-10T13:39:21;3.10;99.90
52869;DHT22;39100;53.480;6.158;2024-01-10T13:41:46;3.00;99.90
52869;DHT22;39100;53.480;6.158;2024-01-10T13:44:12;2.80;99.90
52869;DHT22;39100;53.480;6.158;2024-01-10T13:46:38;2.70;99.90
52869;DHT22;39100;53.480;6.158;2024-01-10T13:49:03;2.70;99.90
52869;DHT22;39100;53.480;6.158;2024-01-10T13:51:30;2.60;99.90
52869;DHT22;39100;53.480;6.158;2024-01-10T13:53:57;2.70;99.90
52869;DHT22;39100;53.480;6.158;2024-01-10T13:56:23;2.60;99.90
52869;DHT22;39100;53.480;6.158;2024-01-10T13:58:48;2.60;99.90
52869;DHT22;39100;53.480;6.158;2024-01-10T14:01:14;2.50;99.90
52869;DHT22;39100;53.480;6.158;2024-01-10T14:03:40;2.40;99.90
52869;DHT22;39100;53.480;6.158;2024-01-10T14:06:05;2.40;99.90
52869;DHT22;39100;53.480;6.158;2024-01-10T14:08:31;2.40;99.90
52869;DHT22;39100;53.480;6.158;2024-01-10T14:10:57;2.40;99.90
52869;DHT22;39100;53.480;6.158;2024-01-10T14:13:22;2.40;99.90
52869;DHT22;39100;53.480;6.158;2024-01-10T14:15:50;2.40;99.90
52869;DHT22;39100;53.480;6.158;2024-01-10T14:18:16;2.30;99.90
52869;DHT22;39100;53.480;6.158;2024-01-10T14:20:42;2.30;99.90
52869;DHT22;39100;53.480;6.158;2024-01-10T14:23:07;2.30;99.90
52869;DHT22;39100;53.480;6.158;2024-01-10T14:25:33;2.20;99.90
52869;DHT22;39100;53.480;6.158;2024-01-10T14:27:58;2.30;99.90
52869;DHT22;39100;53.480;6.158;2024-01-10T14:30:24;2.30;99.90
52869;DHT22;39100;53.480;6.158;2024-01-10T14:32:50;2.20;99.90
52869;DHT22;39100;53.480;6.158;2024-01-10T14:35:16;2.20;99.90
52869;DHT22;39100;53.480;6.158;2024-01-10T14:37:42;2.20;99.90
52869;DHT22;39100;53.480;6.158;2024-01-10T14:40:08;2.10;99.90
52869;DHT22;39100;53.480;6.158;2024-01-10T14:42:34;2.10;99.90
52869;DHT22;39100;53.480;6.158;2024-01-10T14:45:00;2.00;99.90
52869;DHT22;39100;53.480;6.158;2024-01-10T14:47:26;2.00;99.90
52869;DHT22;39100;53.480;6.158;2024-01-10T14:49:51;1.90;99.90
52869;DHT22;39100;53.480;6.158;2024-01-10T14:52:17;1.90;99.90
52869;DHT22;39100;53.480;6.158;2024-01-10T14:54:42;1.80;99.90
52869;DHT22;39100;53.480;6.158;2024-01-10T14:57:08;1.70;99.90
52869;DHT22;39100;53.480;6.158;2024-01-10T14:59:33;1.70;99.90
52869;DHT22;39100;53.480;6.158;2024-01-10T15:01:59;1.70;99.90
52869;DHT22;39100;53.480;6.158;2024-01-10T15:04:24;1.60;99.90
52869;DHT22;39100;53.480;6.158;2024-01-10T15:06:50;1.60;99.90
52869;DHT22;39100;53.480;6.158;2024-01-10T15:09:16;1.50;99.90
52869;DHT22;39100;53.480;6.158;2024-01-10T15:11:42;1.50;99.90
52869;DHT22;39100;53.480;6.158;2024-01-10T15:14:08;1.40;99.90
52869;DHT22;39100;53.480;6.158;2024-01-10T15:16:34;1.40;99.90
52869;DHT22;39100;53.480;6.158;2024-01-10T15:19:00;1.40;99.90
52869;DHT22;39100;53.480;6.158;2024-01-10T15:21:26;1.40;99.90
52869;DHT22;39100;53.480;6.158;2024-01-10T15:23:53;1.30;99.90
52869;DHT22;39100;53.480;6.158;2024-01-10T15:26:19;1.30;99.90
52869;DHT22;39100;53.480;6.158;2024-01-10T15:28:45;1.20;99.90
52869;DHT22;39100;53.480;6.158;2024-01-10T15:31:29;1.20;99.90
52869;DHT22;39100;53.480;6.158;2024-01-10T15:33:54;1.20;99.90
52869;DHT22;39100;53.480;6.158;2024-01-10T15:36:20;1.10;99.90
52869;DHT22;39100;53.480;6.158;2024-01-10T15:38:46;1.10;99.90
52869;DHT22;39100;53.480;6.158;2024-01-10T15:41:12;1.10;99.90
52869;DHT22;39100;53.480;6.158;2024-01-10T15:43:37;1.20;99.90
52869;DHT22;39100;53.480;6.158;2024-01-10T15:46:03;1.10;99.90